Terminal Aerodrome Forecast
Issued by NWS

Home | Current Version | Previous Version | Text Only | Print | Product List | Glossary On
Versions: 1 2 3 4 5 6 7 8 9 10 11 12 13 14 15
366
FTPA31 PHFO 250536
TAFHNY
TAF
PHNY 250536Z 2506/2606 05015G35KT P6SM FEW015 SCT030
     FM251400 05015G25KT P6SM FEW015 SCT030
     FM251800 05025G38KT P6SM FEW015 SCT030=

USA.gov is the U.S. government's official web portal to all federal, state and local government web resources and services.